createdAt,value
2023-03-16T00:02:18.818Z,101258.50
2023-03-16T00:04:47.715Z,101264.66
2023-03-16T00:07:16.944Z,101261.31
2023-03-16T00:09:44.643Z,101255.03
2023-03-16T00:12:16.893Z,101259.16
2023-03-16T00:14:50.260Z,101265.19
2023-03-16T00:17:20.701Z,101256.88
2023-03-16T00:19:55.222Z,101263.03
2023-03-16T00:22:29.443Z,101265.50
2023-03-16T00:24:58.076Z,101272.47
2023-03-16T00:27:27.024Z,101276.84
2023-03-16T00:29:57.967Z,101266.00
2023-03-16T00:32:29.108Z,101272.66
2023-03-16T00:34:57.375Z,101275.72
2023-03-16T00:37:26.879Z,101276.63
2023-03-16T00:39:56.526Z,101277.50
2023-03-16T00:42:27.828Z,101280.56
2023-03-16T00:44:57.315Z,101271.97
2023-03-16T00:47:31.328Z,101283.22
2023-03-16T00:50:01.213Z,101274.31
2023-03-16T00:52:30.274Z,101286.69
2023-03-16T00:54:58.710Z,101283.53
2023-03-16T00:57:30.308Z,101285.53
2023-03-16T00:59:59.623Z,101286.00
2023-03-16T01:02:28.398Z,101283.97
2023-03-16T01:04:56.086Z,101285.81
2023-03-16T01:07:24.734Z,101282.41
2023-03-16T01:09:52.514Z,101276.09
2023-03-16T01:12:20.637Z,101272.63
2023-03-16T01:14:48.806Z,101275.66
2023-03-16T01:17:18.854Z,101270.94
2023-03-16T01:19:47.169Z,101266.91
2023-03-16T01:22:16.548Z,101264.38
2023-03-16T01:24:45.950Z,101258.28
2023-03-16T01:27:14.977Z,101265.50
2023-03-16T01:29:46.638Z,101265.22
2023-03-16T01:32:14.291Z,101263.03
2023-03-16T01:34:43.607Z,101257.75
2023-03-16T01:37:13.930Z,101258.78
2023-03-16T01:39:49.999Z,101253.22
2023-03-16T01:42:18.774Z,101247.31
2023-03-16T01:44:56.804Z,101253.91
2023-03-16T01:47:30.012Z,101253.78
2023-03-16T01:49:58.370Z,101252.47
2023-03-16T01:52:35.888Z,101244.81
2023-03-16T01:55:09.568Z,101250.75
2023-03-16T01:57:42.797Z,101246.09
2023-03-16T02:00:20.926Z,101251.38
2023-03-16T02:03:15.194Z,101252.47
2023-03-16T02:05:59.778Z,101246.72
2023-03-16T02:08:29.314Z,101250.22
2023-03-16T02:10:58.499Z,101247.50
2023-03-16T02:13:36.933Z,101249.63
2023-03-16T02:16:08.698Z,101251.88
2023-03-16T02:18:37.284Z,101251.38
2023-03-16T02:21:12.618Z,101251.09
2023-03-16T02:23:43.702Z,101250.47
2023-03-16T02:26:29.496Z,101249.69
2023-03-16T02:29:00.372Z,101245.84
2023-03-16T02:31:30.681Z,101245.31
2023-03-16T02:33:59.697Z,101257.75
2023-03-16T02:36:29.628Z,101253.06
2023-03-16T02:38:57.683Z,101254.53
2023-03-16T02:41:25.606Z,101258.28
2023-03-16T02:44:04.835Z,101259.06
2023-03-16T02:46:37.665Z,101263.72
2023-03-16T02:49:26.168Z,101259.00
2023-03-16T02:51:54.664Z,101264.22
2023-03-16T02:54:23.509Z,101262.38
2023-03-16T02:56:53.013Z,101262.25
2023-03-16T02:59:22.161Z,101259.88
2023-03-16T03:01:51.572Z,101263.94
2023-03-16T03:04:19.267Z,101266.31
2023-03-16T03:06:50.652Z,101265.19
2023-03-16T03:09:19.663Z,101267.94
2023-03-16T03:11:50.732Z,101257.50
2023-03-16T03:14:18.813Z,101268.59
2023-03-16T03:16:49.575Z,101268.66
2023-03-16T03:19:17.859Z,101271.09
2023-03-16T03:21:45.561Z,101278.03
2023-03-16T03:24:13.289Z,101272.81
2023-03-16T03:26:41.911Z,101268.66
2023-03-16T03:29:17.336Z,101274.81
2023-03-16T03:31:45.540Z,101276.50
2023-03-16T03:34:15.643Z,101279.97
2023-03-16T03:36:43.392Z,101280.94
2023-03-16T03:39:11.103Z,101280.22
2023-03-16T03:41:39.560Z,101282.28
2023-03-16T03:44:08.372Z,101285.72
2023-03-16T03:46:38.229Z,101295.25
2023-03-16T03:49:06.644Z,101292.72
2023-03-16T03:51:36.504Z,101299.28
2023-03-16T03:54:08.999Z,101294.38
2023-03-16T03:56:47.918Z,101300.78
2023-03-16T03:59:19.080Z,101301.41
2023-03-16T04:02:16.666Z,101314.47
2023-03-16T04:04:55.536Z,101307.28
2023-03-16T04:07:23.801Z,101312.91
2023-03-16T04:09:56.232Z,101321.75
2023-03-16T04:12:33.524Z,101319.06
2023-03-16T04:15:01.915Z,101324.31
2023-03-16T04:17:35.518Z,101330.38
2023-03-16T04:20:13.323Z,101325.72
2023-03-16T04:22:43.498Z,101330.63
2023-03-16T04:25:12.956Z,101329.00
2023-03-16T04:27:42.067Z,101331.78
2023-03-16T04:30:13.694Z,101330.88
2023-03-16T04:32:46.772Z,101337.50
2023-03-16T04:35:19.735Z,101332.25
2023-03-16T04:37:55.122Z,101336.50
2023-03-16T04:40:30.484Z,101340.66
2023-03-16T04:43:07.994Z,101347.94
2023-03-16T04:45:36.783Z,101342.78
2023-03-16T04:48:04.954Z,101345.78
2023-03-16T04:50:32.706Z,101352.28
2023-03-16T04:53:01.596Z,101353.97
2023-03-16T04:55:31.444Z,101358.41
2023-03-16T04:57:59.787Z,101347.28
2023-03-16T05:00:32.132Z,101354.44
2023-03-16T05:03:19.639Z,101361.03
2023-03-16T05:05:48.640Z,101357.66
2023-03-16T05:08:17.995Z,101367.25
2023-03-16T05:10:50.028Z,101362.34
2023-03-16T05:13:19.629Z,101364.88
2023-03-16T05:15:50.019Z,101374.28
2023-03-16T05:18:23.235Z,101371.53
2023-03-16T05:20:53.563Z,101379.25
2023-03-16T05:23:22.909Z,101383.38
2023-03-16T05:25:59.926Z,101383.66
2023-03-16T05:28:30.150Z,101384.53
2023-03-16T05:31:04.017Z,101395.63
2023-03-16T05:33:38.959Z,101392.81
2023-03-16T05:36:13.763Z,101397.19
2023-03-16T05:38:45.696Z,101394.59
2023-03-16T05:41:21.663Z,101396.81
2023-03-16T05:44:01.063Z,101406.78
2023-03-16T05:46:38.724Z,101406.41
2023-03-16T05:49:07.967Z,101408.78
2023-03-16T05:51:35.646Z,101410.22
2023-03-16T05:54:06.723Z,101410.28
2023-03-16T05:56:43.871Z,101420.22
2023-03-16T05:59:11.849Z,101419.56
2023-03-16T06:01:40.892Z,101418.22
2023-03-16T06:04:09.173Z,101427.28
2023-03-16T06:06:40.988Z,101426.81
2023-03-16T06:09:17.702Z,101430.47
2023-03-16T06:11:45.595Z,101431.72
2023-03-16T06:14:15.965Z,101432.31
2023-03-16T06:16:45.174Z,101441.50
2023-03-16T06:19:14.743Z,101445.06
2023-03-16T06:21:43.139Z,101444.78
2023-03-16T06:24:13.523Z,101444.59
2023-03-16T06:26:41.706Z,101447.25
2023-03-16T06:29:13.034Z,101450.34
2023-03-16T06:31:41.952Z,101459.75
2023-03-16T06:34:11.778Z,101466.72
2023-03-16T06:36:40.543Z,101467.53
2023-03-16T06:39:14.431Z,101478.22
2023-03-16T06:41:46.382Z,101481.66
2023-03-16T06:44:16.854Z,101485.06
2023-03-16T06:46:55.038Z,101489.06
2023-03-16T06:49:23.653Z,101489.63
2023-03-16T06:51:51.880Z,101501.41
2023-03-16T06:54:21.438Z,101497.41
2023-03-16T06:56:49.656Z,101501.78
2023-03-16T06:59:17.711Z,101503.19
2023-03-16T07:01:45.984Z,101505.56
2023-03-16T07:04:14.178Z,101517.06
2023-03-16T07:06:43.105Z,101525.66
2023-03-16T07:09:12.632Z,101524.41
2023-03-16T07:11:40.560Z,101521.59
2023-03-16T07:14:08.897Z,101524.69
2023-03-16T07:16:37.314Z,101528.59
2023-03-16T07:19:07.757Z,101529.28
2023-03-16T07:21:39.276Z,101529.69
2023-03-16T07:24:10.847Z,101538.00
2023-03-16T07:26:39.299Z,101542.78
2023-03-16T07:29:07.904Z,101550.56
2023-03-16T07:31:36.296Z,101543.66
2023-03-16T07:34:09.430Z,101545.50
2023-03-16T07:36:45.584Z,101550.50
2023-03-16T07:39:14.458Z,101555.19
2023-03-16T07:41:44.041Z,101558.03
2023-03-16T07:44:17.710Z,101560.38
2023-03-16T07:46:49.960Z,101556.75
2023-03-16T07:49:18.153Z,101557.00
2023-03-16T07:51:48.005Z,101565.25
2023-03-16T07:54:18.385Z,101559.78
2023-03-16T07:56:49.562Z,101562.72
2023-03-16T07:59:30.338Z,101585.09
2023-03-16T08:01:58.676Z,101573.53
2023-03-16T08:04:26.454Z,101576.34
2023-03-16T08:07:00.342Z,101583.78
2023-03-16T08:09:37.976Z,101580.34
2023-03-16T08:12:11.348Z,101584.72
2023-03-16T08:14:39.744Z,101585.41
2023-03-16T08:17:15.846Z,101583.13
2023-03-16T08:19:46.234Z,101586.38
2023-03-16T08:22:14.973Z,101589.13
2023-03-16T08:24:46.292Z,101586.84
2023-03-16T08:27:16.289Z,101589.59
2023-03-16T08:29:53.661Z,101598.78
2023-03-16T08:32:25.213Z,101596.00
2023-03-16T08:34:53.940Z,101600.75
2023-03-16T08:37:24.199Z,101590.72
2023-03-16T08:39:54.692Z,101596.53
2023-03-16T08:42:23.779Z,101596.19
2023-03-16T08:45:00.389Z,101588.19
2023-03-16T08:47:31.119Z,101596.03
2023-03-16T08:50:00.371Z,101602.66
2023-03-16T08:52:28.744Z,101603.47
2023-03-16T08:55:03.529Z,101603.84
2023-03-16T08:57:33.500Z,101601.25
2023-03-16T09:00:01.593Z,101608.25
2023-03-16T09:02:30.018Z,101612.03
2023-03-16T09:04:57.631Z,101616.41
2023-03-16T09:07:26.256Z,101615.13
2023-03-16T09:09:54.856Z,101621.78
2023-03-16T09:12:23.550Z,101616.09
2023-03-16T09:14:51.717Z,101626.59
2023-03-16T09:17:20.968Z,101615.78
2023-03-16T09:19:52.392Z,101628.06
2023-03-16T09:22:22.535Z,101631.44
2023-03-16T09:24:51.442Z,101625.94
2023-03-16T09:27:20.878Z,101632.44
2023-03-16T09:30:01.961Z,101626.91
2023-03-16T09:32:30.741Z,101633.25
2023-03-16T09:35:02.457Z,101634.06
2023-03-16T09:37:44.786Z,101631.50
2023-03-16T09:40:25.840Z,101634.06
2023-03-16T09:43:12.373Z,101638.75
2023-03-16T09:45:59.980Z,101638.28
2023-03-16T09:48:34.222Z,101646.03
2023-03-16T09:51:37.223Z,101633.13
2023-03-16T09:54:33.339Z,101634.06
2023-03-16T09:57:05.533Z,101633.34
2023-03-16T09:59:33.770Z,101646.06
2023-03-16T10:02:49.988Z,101637.22
2023-03-16T10:05:23.100Z,101634.69
2023-03-16T10:07:54.051Z,101644.69
2023-03-16T10:10:47.234Z,101636.03
2023-03-16T10:13:57.174Z,101648.31
2023-03-16T10:16:35.758Z,101640.91
2023-03-16T10:19:15.788Z,101633.25
2023-03-16T10:21:45.317Z,101642.44
2023-03-16T10:24:52.043Z,101646.19
2023-03-16T10:27:28.950Z,101646.00
2023-03-16T10:29:58.213Z,101642.84
2023-03-16T10:32:29.530Z,101640.47
2023-03-16T10:35:12.184Z,101641.44
2023-03-16T10:37:40.937Z,101650.59
2023-03-16T10:40:12.416Z,101652.38
2023-03-16T10:42:40.602Z,101652.19
2023-03-16T10:45:34.719Z,101646.06
2023-03-16T10:48:17.175Z,101640.16
2023-03-16T10:50:52.160Z,101635.41
2023-03-16T10:53:42.786Z,101640.66
2023-03-16T10:56:20.579Z,101641.84
2023-03-16T10:58:48.575Z,101638.59
2023-03-16T11:01:24.308Z,101639.44
2023-03-16T11:03:55.772Z,101630.88
2023-03-16T11:06:33.117Z,101641.09
2023-03-16T11:09:12.959Z,101628.84
2023-03-16T11:11:48.615Z,101629.94
2023-03-16T11:14:22.449Z,101623.41
2023-03-16T11:19:27.342Z,101624.31
2023-03-16T11:22:03.938Z,101623.63
2023-03-16T11:24:46.740Z,101614.91
2023-03-16T11:27:35.252Z,101617.63
2023-03-16T11:30:15.217Z,101613.59
2023-03-16T11:32:51.259Z,101611.13
2023-03-16T11:35:41.948Z,101599.19
2023-03-16T11:38:33.086Z,101604.56
2023-03-16T11:41:06.060Z,101603.56
2023-03-16T11:43:46.355Z,101600.25
2023-03-16T11:46:22.889Z,101596.50
2023-03-16T11:49:00.098Z,101593.50
2023-03-16T11:51:58.362Z,101594.94
2023-03-16T11:55:04.591Z,101591.66
2023-03-16T11:57:55.588Z,101582.47
2023-03-16T12:00:33.325Z,101577.13
2023-03-16T12:03:26.024Z,101571.09
2023-03-16T12:06:00.790Z,101583.13
2023-03-16T12:08:32.696Z,101579.72
2023-03-16T12:11:07.905Z,101582.41
2023-03-16T12:14:01.589Z,101581.84
2023-03-16T12:16:55.964Z,101580.50
2023-03-16T12:19:38.641Z,101568.88
2023-03-16T12:22:20.084Z,101568.88
2023-03-16T12:24:48.325Z,101558.38
2023-03-16T12:27:24.084Z,101558.31
2023-03-16T12:30:01.914Z,101552.06
2023-03-16T12:33:10.011Z,101546.81
2023-03-16T12:35:49.752Z,101556.09
2023-03-16T12:38:41.367Z,101553.53
2023-03-16T12:41:18.012Z,101551.03
2023-03-16T12:44:31.562Z,101544.75
2023-03-16T12:47:09.080Z,101534.78
2023-03-16T12:49:38.541Z,101535.97
2023-03-16T12:52:10.808Z,101540.31
2023-03-16T12:55:14.669Z,101540.50
2023-03-16T12:57:45.502Z,101537.34
2023-03-16T13:00:15.034Z,101536.25
2023-03-16T13:02:57.326Z,101538.88
2023-03-16T13:05:32.308Z,101539.91
2023-03-16T13:08:13.795Z,101525.75
2023-03-16T13:10:43.236Z,101535.44
2023-03-16T13:13:15.293Z,101537.22
2023-03-16T13:15:47.712Z,101537.50
2023-03-16T13:18:15.530Z,101532.53
2023-03-16T13:20:56.494Z,101535.69
2023-03-16T13:23:46.588Z,101534.34
2023-03-16T13:26:24.177Z,101529.63
2023-03-16T13:28:54.511Z,101518.00
2023-03-16T13:31:42.881Z,101518.69
2023-03-16T13:34:29.922Z,101529.56
2023-03-16T13:36:59.742Z,101526.91
2023-03-16T13:39:30.604Z,101518.19
2023-03-16T13:42:25.305Z,101517.38
2023-03-16T13:44:54.974Z,101501.13
2023-03-16T13:47:26.591Z,101504.69
2023-03-16T13:50:00.316Z,101500.84
2023-03-16T13:52:33.362Z,101507.34
2023-03-16T13:55:07.943Z,101499.84
2023-03-16T13:57:38.413Z,101490.84
2023-03-16T14:00:25.536Z,101486.66
2023-03-16T14:02:59.175Z,101486.53
2023-03-16T14:05:33.625Z,101479.22
2023-03-16T14:08:02.437Z,101481.56
2023-03-16T14:10:34.430Z,101477.53
2023-03-16T14:13:27.663Z,101480.16
2023-03-16T14:15:59.143Z,101475.59
2023-03-16T14:18:37.316Z,101473.53
2023-03-16T14:21:09.930Z,101471.28
2023-03-16T14:23:43.642Z,101478.78
2023-03-16T14:26:14.446Z,101481.22
2023-03-16T14:28:58.491Z,101467.91
2023-03-16T14:31:35.865Z,101470.91
2023-03-16T14:34:20.118Z,101471.00
2023-03-16T14:36:48.642Z,101481.16
2023-03-16T14:39:21.114Z,101480.19
2023-03-16T14:41:51.416Z,101487.41
2023-03-16T14:44:26.674Z,101475.53
2023-03-16T14:46:57.470Z,101470.72
2023-03-16T14:49:31.192Z,101470.66
2023-03-16T14:52:32.744Z,101471.75
2023-03-16T14:55:03.670Z,101474.88
2023-03-16T14:57:32.358Z,101479.16
2023-03-16T15:00:00.551Z,101487.66
2023-03-16T15:02:31.281Z,101484.00
2023-03-16T15:05:00.429Z,101486.25
2023-03-16T15:07:38.164Z,101491.56
2023-03-16T15:10:10.430Z,101478.09
2023-03-16T15:12:38.610Z,101483.19
2023-03-16T15:15:16.293Z,101484.50
2023-03-16T15:17:48.964Z,101484.72
2023-03-16T15:20:24.340Z,101489.16
2023-03-16T15:22:53.516Z,101487.31
2023-03-16T15:25:42.684Z,101486.66
2023-03-16T15:28:11.745Z,101490.28
2023-03-16T15:30:40.954Z,101487.50
2023-03-16T15:33:10.901Z,101485.72
2023-03-16T15:35:41.174Z,101477.94
2023-03-16T15:38:16.770Z,101484.25
2023-03-16T15:40:48.044Z,101479.56
2023-03-16T15:43:18.716Z,101476.22
2023-03-16T15:45:47.416Z,101473.97
2023-03-16T15:48:16.385Z,101476.53
2023-03-16T15:50:51.189Z,101479.84
2023-03-16T15:53:31.392Z,101476.31
2023-03-16T15:56:04.953Z,101485.47
2023-03-16T15:58:35.143Z,101481.81
2023-03-16T16:01:07.430Z,101500.22
2023-03-16T16:03:35.840Z,101503.44
2023-03-16T16:06:03.877Z,101504.84
2023-03-16T16:08:32.274Z,101511.66
2023-03-16T16:13:56.749Z,101507.16
2023-03-16T16:16:27.470Z,101509.81
2023-03-16T16:18:55.704Z,101510.53
2023-03-16T16:21:26.795Z,101515.25
2023-03-16T16:23:55.034Z,101514.06
2023-03-16T16:26:37.641Z,101512.34
2023-03-16T16:29:19.050Z,101516.19
2023-03-16T16:31:47.869Z,101515.09
2023-03-16T16:34:18.201Z,101521.59
2023-03-16T16:36:46.083Z,101525.59
2023-03-16T16:39:14.252Z,101523.84
2023-03-16T16:41:43.602Z,101527.94
2023-03-16T16:44:24.806Z,101519.75
2023-03-16T16:46:55.038Z,101524.75
2023-03-16T16:49:25.983Z,101530.63
2023-03-16T16:51:54.283Z,101536.94
2023-03-16T16:54:24.947Z,101537.97
2023-03-16T16:56:55.638Z,101541.56
2023-03-16T16:59:27.415Z,101541.06
2023-03-16T17:01:56.741Z,101543.56
2023-03-16T17:04:28.154Z,101541.94
2023-03-16T17:07:02.140Z,101557.78
2023-03-16T17:09:30.789Z,101555.47
2023-03-16T17:12:01.887Z,101558.97
2023-03-16T17:14:31.597Z,101560.63
2023-03-16T17:17:03.100Z,101559.88
2023-03-16T17:19:30.821Z,101565.69
2023-03-16T17:21:58.507Z,101566.91
2023-03-16T17:24:27.573Z,101564.78
2023-03-16T17:26:59.950Z,101567.94
2023-03-16T17:29:34.288Z,101570.44
2023-03-16T17:32:08.221Z,101573.63
2023-03-16T17:34:36.238Z,101582.34
2023-03-16T17:37:05.358Z,101577.50
2023-03-16T17:39:34.536Z,101581.72
2023-03-16T17:42:06.242Z,101584.88
2023-03-16T17:44:38.131Z,101586.44
2023-03-16T17:47:18.497Z,101579.72
2023-03-16T17:49:49.037Z,101581.00
2023-03-16T17:52:26.382Z,101586.56
2023-03-16T17:54:55.106Z,101585.41
2023-03-16T17:57:31.682Z,101592.50
2023-03-16T18:00:02.211Z,101595.63
2023-03-16T18:02:44.850Z,101606.16
2023-03-16T18:05:22.520Z,101607.44
2023-03-16T18:07:54.717Z,101613.25
2023-03-16T18:10:31.774Z,101610.66
2023-03-16T18:13:09.467Z,101613.28
2023-03-16T18:15:39.949Z,101617.50
2023-03-16T18:18:09.389Z,101622.28
2023-03-16T18:20:37.694Z,101635.25
2023-03-16T18:23:16.954Z,101636.69
2023-03-16T18:25:46.710Z,101638.22
2023-03-16T18:28:15.873Z,101643.66
2023-03-16T18:30:52.043Z,101649.28
2023-03-16T18:33:28.796Z,101655.00
2023-03-16T18:36:03.348Z,101646.25
2023-03-16T18:38:36.813Z,101651.06
2023-03-16T18:41:26.730Z,101655.41
2023-03-16T18:43:59.744Z,101661.59
2023-03-16T18:46:37.278Z,101663.97
2023-03-16T18:49:15.576Z,101666.16
2023-03-16T18:51:47.097Z,101664.22
2023-03-16T18:54:35.131Z,101671.94
2023-03-16T18:57:04.422Z,101663.19
2023-03-16T18:59:32.670Z,101667.09
2023-03-16T19:02:01.371Z,101668.88
2023-03-16T19:04:32.882Z,101672.78
2023-03-16T19:07:01.023Z,101677.94
2023-03-16T19:09:32.546Z,101685.47
2023-03-16T19:12:03.166Z,101680.75
2023-03-16T19:14:34.986Z,101681.13
2023-03-16T19:17:02.859Z,101682.75
2023-03-16T19:19:31.605Z,101689.53
2023-03-16T19:22:06.691Z,101691.94
2023-03-16T19:24:41.632Z,101688.97
2023-03-16T19:27:24.153Z,101695.84
2023-03-16T19:29:54.475Z,101695.06
2023-03-16T19:32:23.180Z,101698.78
2023-03-16T19:34:51.352Z,101701.38
2023-03-16T19:37:20.007Z,101704.78
2023-03-16T19:39:48.156Z,101704.34
2023-03-16T19:42:37.092Z,101710.97
2023-03-16T19:45:05.789Z,101709.13
2023-03-16T19:47:35.934Z,101708.34
2023-03-16T19:50:13.291Z,101719.31
2023-03-16T19:52:41.124Z,101722.53
2023-03-16T19:55:09.674Z,101724.69
2023-03-16T19:57:38.574Z,101718.06
2023-03-16T20:00:09.060Z,101717.53
2023-03-16T20:02:42.698Z,101720.06
2023-03-16T20:05:18.175Z,101720.69
2023-03-16T20:07:47.223Z,101729.34
2023-03-16T20:10:29.588Z,101735.81
2023-03-16T20:12:59.407Z,101738.28
2023-03-16T20:15:34.261Z,101746.44
2023-03-16T20:18:03.096Z,101744.75
2023-03-16T20:20:35.966Z,101750.91
2023-03-16T20:23:18.671Z,101750.13
2023-03-16T20:25:47.778Z,101752.47
2023-03-16T20:28:36.357Z,101758.75
2023-03-16T20:31:08.336Z,101761.78
2023-03-16T20:33:36.307Z,101768.34
2023-03-16T20:36:04.592Z,101762.63
2023-03-16T20:38:32.709Z,101765.94
2023-03-16T20:41:01.701Z,101776.59
2023-03-16T20:43:32.103Z,101762.53
2023-03-16T20:46:02.433Z,101765.72
2023-03-16T20:48:30.771Z,101767.88
2023-03-16T20:51:00.130Z,101775.88
2023-03-16T20:53:28.368Z,101778.28
2023-03-16T20:55:56.917Z,101773.34
2023-03-16T20:58:28.025Z,101773.16
2023-03-16T21:01:02.050Z,101775.31
2023-03-16T21:03:31.052Z,101781.88
2023-03-16T21:06:00.213Z,101792.31
2023-03-16T21:08:28.501Z,101784.38
2023-03-16T21:10:57.511Z,101789.69
2023-03-16T21:13:33.127Z,101796.88
2023-03-16T21:16:03.417Z,101799.13
2023-03-16T21:18:31.781Z,101791.09
2023-03-16T21:20:59.400Z,101797.66
2023-03-16T21:23:27.913Z,101795.91
2023-03-16T21:25:59.631Z,101787.47
2023-03-16T21:28:30.088Z,101788.59
2023-03-16T21:30:58.758Z,101781.94
2023-03-16T21:33:32.942Z,101784.50
2023-03-16T21:36:03.802Z,101785.19
2023-03-16T21:38:32.960Z,101784.84
2023-03-16T21:41:01.508Z,101785.06
2023-03-16T21:43:31.280Z,101785.72
2023-03-16T21:45:59.963Z,101788.22
2023-03-16T21:48:37.712Z,101794.31
2023-03-16T21:51:17.859Z,101800.75
2023-03-16T21:53:49.361Z,101798.78
2023-03-16T21:56:22.987Z,101800.47
2023-03-16T21:58:52.176Z,101801.16
2023-03-16T22:01:26.759Z,101800.53
2023-03-16T22:04:16.586Z,101804.66
2023-03-16T22:06:46.088Z,101802.53
2023-03-16T22:09:19.517Z,101809.41
2023-03-16T22:11:47.969Z,101814.25
2023-03-16T22:14:15.797Z,101813.00
2023-03-16T22:16:44.070Z,101813.63
2023-03-16T22:19:14.653Z,101814.13
2023-03-16T22:21:44.610Z,101820.41
2023-03-16T22:24:22.361Z,101822.44
2023-03-16T22:26:51.581Z,101818.25
2023-03-16T22:29:23.646Z,101819.81
2023-03-16T22:31:55.406Z,101817.22
2023-03-16T22:34:34.487Z,101819.69
2023-03-16T22:37:02.897Z,101814.13
2023-03-16T22:39:37.003Z,101807.19
2023-03-16T22:42:27.628Z,101812.25
2023-03-16T22:44:55.671Z,101807.19
2023-03-16T22:47:26.772Z,101807.19
2023-03-16T22:49:55.141Z,101811.53
2023-03-16T22:52:28.949Z,101816.81
2023-03-16T22:55:01.462Z,101813.75
2023-03-16T22:57:31.345Z,101817.66
2023-03-16T23:00:00.731Z,101807.41
2023-03-16T23:02:29.201Z,101813.50
2023-03-16T23:04:56.883Z,101815.06
2023-03-16T23:07:24.522Z,101820.75
2023-03-16T23:09:52.471Z,101820.75
2023-03-16T23:12:21.783Z,101818.41
2023-03-16T23:14:49.989Z,101811.06
2023-03-16T23:17:20.445Z,101810.88
2023-03-16T23:19:49.326Z,101807.13
2023-03-16T23:22:17.763Z,101817.88
2023-03-16T23:24:45.931Z,101810.94
2023-03-16T23:27:22.176Z,101810.88
2023-03-16T23:29:49.869Z,101807.69
2023-03-16T23:32:18.174Z,101811.34
2023-03-16T23:34:46.073Z,101810.06
2023-03-16T23:37:14.553Z,101814.34
2023-03-16T23:39:42.409Z,101811.25
2023-03-16T23:42:10.168Z,101811.94
2023-03-16T23:44:38.224Z,101815.41
2023-03-16T23:47:07.135Z,101810.44
2023-03-16T23:49:41.211Z,101804.78
2023-03-16T23:52:12.306Z,101800.50
2023-03-16T23:54:40.877Z,101805.78
2023-03-16T23:57:10.193Z,101801.38
2023-03-16T23:59:38.350Z,101804.88
